sensor_id;sensor_type;location;lat;lon;timestamp;temperature;humidity
64937;SHT30;51452;47.698;19.050;2023-02-08T00:01:26;-0.27;54.10
64937;SHT30;51452;47.698;19.050;2023-02-08T00:03:52;-0.34;53.74
64937;SHT30;51452;47.698;19.050;2023-02-08T00:06:17;-0.25;53.12
64937;SHT30;51452;47.698;19.050;2023-02-08T00:08:43;-0.19;54.01
64937;SHT30;51452;47.698;19.050;2023-02-08T00:11:09;-0.16;54.64
64937;SHT30;51452;47.698;19.050;2023-02-08T00:13:36;-0.15;54.99
64937;SHT30;51452;47.698;19.050;2023-02-08T00:16:01;-0.09;53.62
64937;SHT30;51452;47.698;19.050;2023-02-08T00:18:27;-0.23;52.96
64937;SHT30;51452;47.698;19.050;2023-02-08T00:20:52;-0.22;53.68
64937;SHT30;51452;47.698;19.050;2023-02-08T00:23:19;-0.19;53.75
64937;SHT30;51452;47.698;19.050;2023-02-08T00:25:45;-0.20;54.14
64937;SHT30;51452;47.698;19.050;2023-02-08T00:28:13;-0.12;54.92
64937;SHT30;51452;47.698;19.050;2023-02-08T00:30:39;-0.03;55.19
64937;SHT30;51452;47.698;19.050;2023-02-08T00:33:05;-0.05;54.85
64937;SHT30;51452;47.698;19.050;2023-02-08T00:35:31;0.01;54.67
64937;SHT30;51452;47.698;19.050;2023-02-08T00:37:56;-0.05;54.28
64937;SHT30;51452;47.698;19.050;2023-02-08T00:40:22;-0.16;54.64
64937;SHT30;51452;47.698;19.050;2023-02-08T00:42:47;-0.23;53.86
64937;SHT30;51452;47.698;19.050;2023-02-08T00:45:13;-0.23;53.87
64937;SHT30;51452;47.698;19.050;2023-02-08T00:47:38;-0.29;54.97
64937;SHT30;51452;47.698;19.050;2023-02-08T00:50:04;-0.26;55.96
64937;SHT30;51452;47.698;19.050;2023-02-08T00:52:30;-0.20;56.16
64937;SHT30;51452;47.698;19.050;2023-02-08T00:54:55;-0.20;56.17
64937;SHT30;51452;47.698;19.050;2023-02-08T00:57:21;-0.15;56.09
64937;SHT30;51452;47.698;19.050;2023-02-08T00:59:46;-0.05;55.79
64937;SHT30;51452;47.698;19.050;2023-02-08T01:02:11;-0.06;55.88
64937;SHT30;51452;47.698;19.050;2023-02-08T01:04:37;-0.01;55.73
64937;SHT30;51452;47.698;19.050;2023-02-08T01:07:04;0.02;55.38
64937;SHT30;51452;47.698;19.050;2023-02-08T01:09:29;-0.08;56.19
64937;SHT30;51452;47.698;19.050;2023-02-08T01:11:55;-0.08;56.09
64937;SHT30;51452;47.698;19.050;2023-02-08T01:14:20;-0.09;55.88
64937;SHT30;51452;47.698;19.050;2023-02-08T01:16:46;-0.06;56.48
64937;SHT30;51452;47.698;19.050;2023-02-08T01:19:11;0.04;56.06
64937;SHT30;51452;47.698;19.050;2023-02-08T01:21:39;0.05;55.66
64937;SHT30;51452;47.698;19.050;2023-02-08T01:24:05;-0.02;56.21
64937;SHT30;51452;47.698;19.050;2023-02-08T01:26:31;-0.05;55.72
64937;SHT30;51452;47.698;19.050;2023-02-08T01:28:57;-0.06;55.50
64937;SHT30;51452;47.698;19.050;2023-02-08T01:31:29;0.04;55.77
64937;SHT30;51452;47.698;19.050;2023-02-08T01:33:56;0.02;55.21
64937;SHT30;51452;47.698;19.050;2023-02-08T01:36:22;-0.03;55.49
64937;SHT30;51452;47.698;19.050;2023-02-08T01:38:47;0.05;55.09
64937;SHT30;51452;47.698;19.050;2023-02-08T01:41:25;0.08;54.80
64937;SHT30;51452;47.698;19.050;2023-02-08T01:46:46;-0.19;55.43
64937;SHT30;51452;47.698;19.050;2023-02-08T01:52:07;-0.13;55.81
64937;SHT30;51452;47.698;19.050;2023-02-08T01:54:37;-0.12;55.94
64937;SHT30;51452;47.698;19.050;2023-02-08T01:57:05;-0.08;55.82
64937;SHT30;51452;47.698;19.050;2023-02-08T01:59:50;-0.17;55.61
64937;SHT30;51452;47.698;19.050;2023-02-08T02:02:16;-0.09;56.04
64937;SHT30;51452;47.698;19.050;2023-02-08T02:04:43;-0.06;56.07
64937;SHT30;51452;47.698;19.050;2023-02-08T02:07:09;-0.05;55.73
64937;SHT30;51452;47.698;19.050;2023-02-08T02:09:46;0.01;55.78
64937;SHT30;51452;47.698;19.050;2023-02-08T02:12:14;0.01;56.16
64937;SHT30;51452;47.698;19.050;2023-02-08T02:14:41;0.08;56.07
64937;SHT30;51452;47.698;19.050;2023-02-08T02:17:07;0.05;56.58
64937;SHT30;51452;47.698;19.050;2023-02-08T02:19:44;0.09;56.31
64937;SHT30;51452;47.698;19.050;2023-02-08T02:47:11;0.36;56.34
64937;SHT30;51452;47.698;19.050;2023-02-08T02:49:49;0.30;56.67
64937;SHT30;51452;47.698;19.050;2023-02-08T02:52:18;0.36;56.29
64937;SHT30;51452;47.698;19.050;2023-02-08T02:54:52;0.26;56.56
64937;SHT30;51452;47.698;19.050;2023-02-08T02:57:26;0.30;55.89
64937;SHT30;51452;47.698;19.050;2023-02-08T02:59:52;0.38;56.21
64937;SHT30;51452;47.698;19.050;2023-02-08T03:02:18;0.28;55.96
64937;SHT30;51452;47.698;19.050;2023-02-08T03:04:46;0.30;55.46
64937;SHT30;51452;47.698;19.050;2023-02-08T03:10:23;0.35;56.07
64937;SHT30;51452;47.698;19.050;2023-02-08T03:23:30;0.36;55.64
64937;SHT30;51452;47.698;19.050;2023-02-08T03:32:03;0.26;55.84
64937;SHT30;51452;47.698;19.050;2023-02-08T03:39:49;0.12;56.12
64937;SHT30;51452;47.698;19.050;2023-02-08T03:42:19;0.15;56.11
64937;SHT30;51452;47.698;19.050;2023-02-08T03:44:51;0.12;56.27
64937;SHT30;51452;47.698;19.050;2023-02-08T03:47:22;0.12;56.37
64937;SHT30;51452;47.698;19.050;2023-02-08T03:49:54;0.18;56.23
64937;SHT30;51452;47.698;19.050;2023-02-08T03:52:21;0.15;56.28
64937;SHT30;51452;47.698;19.050;2023-02-08T03:54:50;0.06;56.28
64937;SHT30;51452;47.698;19.050;2023-02-08T03:57:23;0.16;56.16
64937;SHT30;51452;47.698;19.050;2023-02-08T04:00:00;0.16;56.34
64937;SHT30;51452;47.698;19.050;2023-02-08T04:02:29;0.25;56.46
64937;SHT30;51452;47.698;19.050;2023-02-08T04:04:56;0.18;56.29
64937;SHT30;51452;47.698;19.050;2023-02-08T04:07:22;0.22;56.67
64937;SHT30;51452;47.698;19.050;2023-02-08T04:09:48;0.21;56.48
64937;SHT30;51452;47.698;19.050;2023-02-08T04:12:13;0.15;56.59
64937;SHT30;51452;47.698;19.050;2023-02-08T04:14:39;0.09;56.49
64937;SHT30;51452;47.698;19.050;2023-02-08T04:17:05;0.11;56.74
64937;SHT30;51452;47.698;19.050;2023-02-08T04:19:30;0.19;56.48
64937;SHT30;51452;47.698;19.050;2023-02-08T04:21:56;0.23;56.41
64937;SHT30;51452;47.698;19.050;2023-02-08T04:24:21;0.19;56.26
64937;SHT30;51452;47.698;19.050;2023-02-08T04:26:47;0.29;56.39
64937;SHT30;51452;47.698;19.050;2023-02-08T04:29:12;0.25;56.26
64937;SHT30;51452;47.698;19.050;2023-02-08T04:31:37;0.23;56.19
64937;SHT30;51452;47.698;19.050;2023-02-08T04:34:03;0.19;56.16
64937;SHT30;51452;47.698;19.050;2023-02-08T04:36:28;0.26;55.79
64937;SHT30;51452;47.698;19.050;2023-02-08T04:38:54;0.26;55.99
64937;SHT30;51452;47.698;19.050;2023-02-08T04:41:19;0.26;55.72
64937;SHT30;51452;47.698;19.050;2023-02-08T04:43:44;0.16;56.25
64937;SHT30;51452;47.698;19.050;2023-02-08T04:46:10;0.16;56.29
64937;SHT30;51452;47.698;19.050;2023-02-08T04:48:36;0.15;56.43
64937;SHT30;51452;47.698;19.050;2023-02-08T04:51:01;0.14;56.58
64937;SHT30;51452;47.698;19.050;2023-02-08T04:53:27;0.26;56.43
64937;SHT30;51452;47.698;19.050;2023-02-08T04:55:52;0.25;56.37
64937;SHT30;51452;47.698;19.050;2023-02-08T04:58:18;0.16;56.48
64937;SHT30;51452;47.698;19.050;2023-02-08T05:00:44;0.21;56.40
64937;SHT30;51452;47.698;19.050;2023-02-08T05:03:09;0.25;56.58
64937;SHT30;51452;47.698;19.050;2023-02-08T05:05:35;0.29;56.31
64937;SHT30;51452;47.698;19.050;2023-02-08T05:08:00;0.32;56.23
64937;SHT30;51452;47.698;19.050;2023-02-08T05:10:26;0.28;56.37
64937;SHT30;51452;47.698;19.050;2023-02-08T05:12:51;0.32;56.11
64937;SHT30;51452;47.698;19.050;2023-02-08T05:15:17;0.21;56.79
64937;SHT30;51452;47.698;19.050;2023-02-08T05:17:42;0.22;56.86
64937;SHT30;51452;47.698;19.050;2023-02-08T05:20:08;0.21;56.59
64937;SHT30;51452;47.698;19.050;2023-02-08T05:22:34;0.15;56.79
64937;SHT30;51452;47.698;19.050;2023-02-08T05:25:00;0.12;57.12
64937;SHT30;51452;47.698;19.050;2023-02-08T05:27:25;0.18;56.96
64937;SHT30;51452;47.698;19.050;2023-02-08T05:29:51;0.21;56.73
64937;SHT30;51452;47.698;19.050;2023-02-08T05:32:16;0.09;56.82
64937;SHT30;51452;47.698;19.050;2023-02-08T05:34:42;0.09;57.13
64937;SHT30;51452;47.698;19.050;2023-02-08T05:37:07;0.04;57.26
64937;SHT30;51452;47.698;19.050;2023-02-08T05:39:32;0.01;57.21
64937;SHT30;51452;47.698;19.050;2023-02-08T05:41:58;0.09;57.24
64937;SHT30;51452;47.698;19.050;2023-02-08T05:44:24;0.01;57.27
64937;SHT30;51452;47.698;19.050;2023-02-08T05:46:49;-0.03;57.25
64937;SHT30;51452;47.698;19.050;2023-02-08T05:49:15;-0.12;57.44
64937;SHT30;51452;47.698;19.050;2023-02-08T05:51:40;-0.09;57.82
64937;SHT30;51452;47.698;19.050;2023-02-08T05:54:06;-0.12;57.94
64937;SHT30;51452;47.698;19.050;2023-02-08T05:56:31;-0.10;57.63
64937;SHT30;51452;47.698;19.050;2023-02-08T05:58:59;-0.23;58.11
64937;SHT30;51452;47.698;19.050;2023-02-08T06:01:25;-0.23;57.94
64937;SHT30;51452;47.698;19.050;2023-02-08T06:03:51;-0.20;58.21
64937;SHT30;51452;47.698;19.050;2023-02-08T06:06:16;-0.20;58.26
64937;SHT30;51452;47.698;19.050;2023-02-08T06:08:42;-0.25;58.31
64937;SHT30;51452;47.698;19.050;2023-02-08T06:11:07;-0.25;58.47
64937;SHT30;51452;47.698;19.050;2023-02-08T06:13:33;-0.22;58.64
64937;SHT30;51452;47.698;19.050;2023-02-08T06:15:59;-0.22;58.50
64937;SHT30;51452;47.698;19.050;2023-02-08T06:18:24;-0.22;58.35
64937;SHT30;51452;47.698;19.050;2023-02-08T06:20:53;-0.16;58.42
64937;SHT30;51452;47.698;19.050;2023-02-08T06:23:19;-0.26;58.83
64937;SHT30;51452;47.698;19.050;2023-02-08T06:25:45;-0.25;58.70
64937;SHT30;51452;47.698;19.050;2023-02-08T06:28:10;-0.19;58.89
64937;SHT30;51452;47.698;19.050;2023-02-08T06:30:36;-0.22;58.44
64937;SHT30;51452;47.698;19.050;2023-02-08T06:33:02;-0.26;59.14
64937;SHT30;51452;47.698;19.050;2023-02-08T06:35:28;-0.20;58.75
64937;SHT30;51452;47.698;19.050;2023-02-08T06:37:53;-0.09;58.61
64937;SHT30;51452;47.698;19.050;2023-02-08T06:40:19;-0.08;58.59
64937;SHT30;51452;47.698;19.050;2023-02-08T06:42:46;-0.05;58.58
64937;SHT30;51452;47.698;19.050;2023-02-08T06:45:11;-0.05;58.78
64937;SHT30;51452;47.698;19.050;2023-02-08T06:47:37;-0.03;58.72
64937;SHT30;51452;47.698;19.050;2023-02-08T06:50:02;0.09;58.38
64937;SHT30;51452;47.698;19.050;2023-02-08T06:52:28;0.08;58.78
64937;SHT30;51452;47.698;19.050;2023-02-08T06:54:53;0.18;58.72
64937;SHT30;51452;47.698;19.050;2023-02-08T06:57:19;0.22;58.63
64937;SHT30;51452;47.698;19.050;2023-02-08T06:59:44;0.21;58.94
64937;SHT30;51452;47.698;19.050;2023-02-08T07:02:15;0.32;58.27
64937;SHT30;51452;47.698;19.050;2023-02-08T07:04:42;0.23;58.79
64937;SHT30;51452;47.698;19.050;2023-02-08T07:07:08;0.36;58.20
64937;SHT30;51452;47.698;19.050;2023-02-08T07:09:34;0.32;58.34
64937;SHT30;51452;47.698;19.050;2023-02-08T07:12:00;0.49;58.12
64937;SHT30;51452;47.698;19.050;2023-02-08T07:14:34;0.46;58.04
64937;SHT30;51452;47.698;19.050;2023-02-08T07:17:00;0.45;58.35
64937;SHT30;51452;47.698;19.050;2023-02-08T07:19:26;0.39;58.53
64937;SHT30;51452;47.698;19.050;2023-02-08T07:21:52;0.60;58.49
64937;SHT30;51452;47.698;19.050;2023-02-08T07:24:17;0.53;58.58
64937;SHT30;51452;47.698;19.050;2023-02-08T07:26:43;0.62;58.44
64937;SHT30;51452;47.698;19.050;2023-02-08T07:29:08;0.67;58.21
64937;SHT30;51452;47.698;19.050;2023-02-08T07:31:34;0.67;58.23
64937;SHT30;51452;47.698;19.050;2023-02-08T07:33:59;0.67;58.05
64937;SHT30;51452;47.698;19.050;2023-02-08T07:36:25;0.72;57.65
64937;SHT30;51452;47.698;19.050;2023-02-08T07:38:50;0.74;57.52
64937;SHT30;51452;47.698;19.050;2023-02-08T07:41:16;0.79;57.40
64937;SHT30;51452;47.698;19.050;2023-02-08T07:43:42;0.76;58.06
64937;SHT30;51452;47.698;19.050;2023-02-08T07:46:18;0.81;57.11
64937;SHT30;51452;47.698;19.050;2023-02-08T07:48:44;0.87;57.57
64937;SHT30;51452;47.698;19.050;2023-02-08T07:51:10;0.93;57.19
64937;SHT30;51452;47.698;19.050;2023-02-08T07:53:37;0.93;57.18
64937;SHT30;51452;47.698;19.050;2023-02-08T07:56:02;0.88;57.53
64937;SHT30;51452;47.698;19.050;2023-02-08T07:58:28;1.00;57.08
64937;SHT30;51452;47.698;19.050;2023-02-08T08:00:53;1.05;57.42
64937;SHT30;51452;47.698;19.050;2023-02-08T08:03:19;0.98;57.36
64937;SHT30;51452;47.698;19.050;2023-02-08T08:05:45;1.04;57.20
64937;SHT30;51452;47.698;19.050;2023-02-08T08:08:11;1.21;57.35
64937;SHT30;51452;47.698;19.050;2023-02-08T08:10:36;1.15;57.37
64937;SHT30;51452;47.698;19.050;2023-02-08T08:13:02;1.28;57.06
64937;SHT30;51452;47.698;19.050;2023-02-08T08:15:28;1.15;57.18
64937;SHT30;51452;47.698;19.050;2023-02-08T08:17:53;1.30;57.24
64937;SHT30;51452;47.698;19.050;2023-02-08T08:20:19;1.45;56.48
64937;SHT30;51452;47.698;19.050;2023-02-08T08:22:45;1.55;56.40
64937;SHT30;51452;47.698;19.050;2023-02-08T08:25:10;1.51;56.43
64937;SHT30;51452;47.698;19.050;2023-02-08T08:27:36;1.54;56.20
64937;SHT30;51452;47.698;19.050;2023-02-08T08:30:04;1.62;56.30
64937;SHT30;51452;47.698;19.050;2023-02-08T08:32:30;1.66;56.13
64937;SHT30;51452;47.698;19.050;2023-02-08T08:34:55;1.67;55.95
64937;SHT30;51452;47.698;19.050;2023-02-08T08:37:20;1.63;55.88
64937;SHT30;51452;47.698;19.050;2023-02-08T08:39:46;1.63;56.49
64937;SHT30;51452;47.698;19.050;2023-02-08T08:42:11;1.73;56.45
64937;SHT30;51452;47.698;19.050;2023-02-08T08:44:37;1.77;56.20
64937;SHT30;51452;47.698;19.050;2023-02-08T08:47:02;1.77;56.35
64937;SHT30;51452;47.698;19.050;2023-02-08T08:49:28;1.83;56.06
64937;SHT30;51452;47.698;19.050;2023-02-08T08:51:54;1.80;56.11
64937;SHT30;51452;47.698;19.050;2023-02-08T08:54:20;1.75;56.12
64937;SHT30;51452;47.698;19.050;2023-02-08T08:56:46;1.79;56.16
64937;SHT30;51452;47.698;19.050;2023-02-08T08:59:12;1.70;56.98
64937;SHT30;51452;47.698;19.050;2023-02-08T09:01:37;1.80;56.65
64937;SHT30;51452;47.698;19.050;2023-02-08T09:04:04;1.85;56.50
64937;SHT30;51452;47.698;19.050;2023-02-08T09:06:29;1.90;56.29
64937;SHT30;51452;47.698;19.050;2023-02-08T09:08:55;2.00;56.21
64937;SHT30;51452;47.698;19.050;2023-02-08T09:11:20;1.93;56.35
64937;SHT30;51452;47.698;19.050;2023-02-08T09:13:46;2.00;56.63
64937;SHT30;51452;47.698;19.050;2023-02-08T09:16:17;2.11;56.19
64937;SHT30;51452;47.698;19.050;2023-02-08T09:18:44;2.09;56.18
64937;SHT30;51452;47.698;19.050;2023-02-08T09:21:14;2.18;56.32
64937;SHT30;51452;47.698;19.050;2023-02-08T09:23:41;2.14;56.51
64937;SHT30;51452;47.698;19.050;2023-02-08T09:26:09;2.18;55.99
64937;SHT30;51452;47.698;19.050;2023-02-08T09:28:35;2.26;56.36
64937;SHT30;51452;47.698;19.050;2023-02-08T09:31:24;2.28;56.04
64937;SHT30;51452;47.698;19.050;2023-02-08T09:33:50;2.18;56.83
64937;SHT30;51452;47.698;19.050;2023-02-08T09:36:17;2.40;56.49
64937;SHT30;51452;47.698;19.050;2023-02-08T09:38:43;2.48;56.04
64937;SHT30;51452;47.698;19.050;2023-02-08T09:46:40;2.79;55.36
64937;SHT30;51452;47.698;19.050;2023-02-08T09:49:17;2.95;54.96
64937;SHT30;51452;47.698;19.050;2023-02-08T09:51:54;2.99;55.23
64937;SHT30;51452;47.698;19.050;2023-02-08T09:54:32;2.99;54.47
64937;SHT30;51452;47.698;19.050;2023-02-08T09:57:01;3.13;54.55
64937;SHT30;51452;47.698;19.050;2023-02-08T09:59:30;3.03;54.69
64937;SHT30;51452;47.698;19.050;2023-02-08T10:02:21;3.16;54.48
64937;SHT30;51452;47.698;19.050;2023-02-08T10:05:20;3.03;54.49
64937;SHT30;51452;47.698;19.050;2023-02-08T10:07:46;3.30;54.91
64937;SHT30;51452;47.698;19.050;2023-02-08T10:13:06;3.66;53.52
64937;SHT30;51452;47.698;19.050;2023-02-08T10:26:51;4.22;50.04
64937;SHT30;51452;47.698;19.050;2023-02-08T10:34:45;4.26;50.56
64937;SHT30;51452;47.698;19.050;2023-02-08T10:37:13;4.18;50.08
64937;SHT30;51452;47.698;19.050;2023-02-08T10:39:39;4.02;51.11
64937;SHT30;51452;47.698;19.050;2023-02-08T10:42:11;4.05;50.81
64937;SHT30;51452;47.698;19.050;2023-02-08T10:44:53;4.08;50.93
64937;SHT30;51452;47.698;19.050;2023-02-08T10:50:39;4.30;49.97
64937;SHT30;51452;47.698;19.050;2023-02-08T10:53:12;4.25;50.57
64937;SHT30;51452;47.698;19.050;2023-02-08T10:55:41;4.49;50.26
64937;SHT30;51452;47.698;19.050;2023-02-08T10:58:13;4.63;50.17
64937;SHT30;51452;47.698;19.050;2023-02-08T11:00:40;4.73;49.54
64937;SHT30;51452;47.698;19.050;2023-02-08T11:03:22;4.60;48.52
64937;SHT30;51452;47.698;19.050;2023-02-08T11:05:48;4.56;49.50
64937;SHT30;51452;47.698;19.050;2023-02-08T11:08:22;4.26;49.57
64937;SHT30;51452;47.698;19.050;2023-02-08T11:10:57;4.40;49.60
64937;SHT30;51452;47.698;19.050;2023-02-08T11:13:24;4.05;49.20
64937;SHT30;51452;47.698;19.050;2023-02-08T11:15:59;3.85;50.16
64937;SHT30;51452;47.698;19.050;2023-02-08T11:18:30;4.01;50.88
64937;SHT30;51452;47.698;19.050;2023-02-08T11:21:08;4.10;49.63
64937;SHT30;51452;47.698;19.050;2023-02-08T11:23:40;4.32;50.14
64937;SHT30;51452;47.698;19.050;2023-02-08T11:26:32;4.40;49.69
64937;SHT30;51452;47.698;19.050;2023-02-08T11:29:18;4.54;49.48
64937;SHT30;51452;47.698;19.050;2023-02-08T11:34:36;4.83;49.08
64937;SHT30;51452;47.698;19.050;2023-02-08T11:37:14;5.01;49.60
64937;SHT30;51452;47.698;19.050;2023-02-08T11:39:48;5.04;47.94
64937;SHT30;51452;47.698;19.050;2023-02-08T11:42:21;5.11;47.16
64937;SHT30;51452;47.698;19.050;2023-02-08T11:44:48;5.24;46.59
64937;SHT30;51452;47.698;19.050;2023-02-08T11:47:17;5.25;46.10
64937;SHT30;51452;47.698;19.050;2023-02-08T11:50:32;5.19;45.98
64937;SHT30;51452;47.698;19.050;2023-02-08T11:53:04;5.29;46.89
64937;SHT30;51452;47.698;19.050;2023-02-08T11:55:32;5.38;46.53
64937;SHT30;51452;47.698;19.050;2023-02-08T11:58:24;5.43;46.09
64937;SHT30;51452;47.698;19.050;2023-02-08T12:01:17;5.52;46.46
64937;SHT30;51452;47.698;19.050;2023-02-08T12:03:44;5.48;46.96
64937;SHT30;51452;47.698;19.050;2023-02-08T12:09:08;5.43;46.82
64937;SHT30;51452;47.698;19.050;2023-02-08T12:11:44;5.52;46.45
64937;SHT30;51452;47.698;19.050;2023-02-08T12:25:49;5.38;45.43
64937;SHT30;51452;47.698;19.050;2023-02-08T12:31:21;5.46;45.36
64937;SHT30;51452;47.698;19.050;2023-02-08T12:40:30;5.39;44.52
64937;SHT30;51452;47.698;19.050;2023-02-08T12:51:22;5.02;46.87
64937;SHT30;51452;47.698;19.050;2023-02-08T12:53:55;5.07;46.87
64937;SHT30;51452;47.698;19.050;2023-02-08T12:56:30;5.12;46.09
64937;SHT30;51452;47.698;19.050;2023-02-08T12:58:59;5.15;45.41
64937;SHT30;51452;47.698;19.050;2023-02-08T13:04:19;5.11;45.58
64937;SHT30;51452;47.698;19.050;2023-02-08T13:06:51;5.15;46.06
64937;SHT30;51452;47.698;19.050;2023-02-08T13:14:48;4.94;45.97
64937;SHT30;51452;47.698;19.050;2023-02-08T13:17:27;4.97;45.93
64937;SHT30;51452;47.698;19.050;2023-02-08T13:20:06;5.07;46.32
64937;SHT30;51452;47.698;19.050;2023-02-08T13:22:40;5.02;46.30
64937;SHT30;51452;47.698;19.050;2023-02-08T13:25:14;5.02;46.06
64937;SHT30;51452;47.698;19.050;2023-02-08T13:27:43;5.02;45.82
64937;SHT30;51452;47.698;19.050;2023-02-08T13:30:17;4.95;45.99
64937;SHT30;51452;47.698;19.050;2023-02-08T13:32:44;5.00;46.60
64937;SHT30;51452;47.698;19.050;2023-02-08T13:37:47;5.01;46.35
64937;SHT30;51452;47.698;19.050;2023-02-08T13:40:19;5.05;45.89
64937;SHT30;51452;47.698;19.050;2023-02-08T13:42:56;5.01;46.07
64937;SHT30;51452;47.698;19.050;2023-02-08T13:45:27;5.00;46.14
64937;SHT30;51452;47.698;19.050;2023-02-08T13:48:03;4.90;46.28
64937;SHT30;51452;47.698;19.050;2023-02-08T13:50:53;4.78;46.83
64937;SHT30;51452;47.698;19.050;2023-02-08T13:56:09;4.63;46.66
64937;SHT30;51452;47.698;19.050;2023-02-08T14:01:17;4.38;46.81
64937;SHT30;51452;47.698;19.050;2023-02-08T14:03:43;4.53;46.86
64937;SHT30;51452;47.698;19.050;2023-02-08T14:06:22;4.60;46.44
64937;SHT30;51452;47.698;19.050;2023-02-08T14:09:42;4.53;46.62
64937;SHT30;51452;47.698;19.050;2023-02-08T14:12:05;4.53;47.13
64937;SHT30;51452;47.698;19.050;2023-02-08T14:14:37;4.54;47.25
64937;SHT30;51452;47.698;19.050;2023-02-08T14:19:30;4.63;47.34
64937;SHT30;51452;47.698;19.050;2023-02-08T14:22:19;4.67;46.77
64937;SHT30;51452;47.698;19.050;2023-02-08T14:24:58;4.74;45.96
64937;SHT30;51452;47.698;19.050;2023-02-08T14:27:57;4.78;45.74
64937;SHT30;51452;47.698;19.050;2023-02-08T14:30:25;4.90;45.42
64937;SHT30;51452;47.698;19.050;2023-02-08T14:33:07;4.88;45.10
64937;SHT30;51452;47.698;19.050;2023-02-08T14:35:58;4.78;45.60
64937;SHT30;51452;47.698;19.050;2023-02-08T14:41:47;4.78;45.37
64937;SHT30;51452;47.698;19.050;2023-02-08T14:47:49;4.78;45.39
64937;SHT30;51452;47.698;19.050;2023-02-08T14:52:35;4.67;44.61
64937;SHT30;51452;47.698;19.050;2023-02-08T14:55:05;4.50;44.82
64937;SHT30;51452;47.698;19.050;2023-02-08T14:57:34;4.54;44.94
64937;SHT30;51452;47.698;19.050;2023-02-08T15:00:04;4.59;45.14
64937;SHT30;51452;47.698;19.050;2023-02-08T15:02:30;4.56;45.09
64937;SHT30;51452;47.698;19.050;2023-02-08T15:04:58;4.40;45.30
64937;SHT30;51452;47.698;19.050;2023-02-08T15:07:34;4.43;45.16
64937;SHT30;51452;47.698;19.050;2023-02-08T15:10:10;4.30;45.55
64937;SHT30;51452;47.698;19.050;2023-02-08T15:12:38;4.32;45.09
64937;SHT30;51452;47.698;19.050;2023-02-08T15:15:05;4.29;45.67
64937;SHT30;51452;47.698;19.050;2023-02-08T15:17:41;4.35;45.45
64937;SHT30;51452;47.698;19.050;2023-02-08T15:20:24;4.32;45.34
64937;SHT30;51452;47.698;19.050;2023-02-08T15:23:23;4.32;45.90
64937;SHT30;51452;47.698;19.050;2023-02-08T15:26:00;4.23;45.61
64937;SHT30;51452;47.698;19.050;2023-02-08T15:28:29;4.30;45.84
64937;SHT30;51452;47.698;19.050;2023-02-08T15:30:58;4.18;45.92
64937;SHT30;51452;47.698;19.050;2023-02-08T15:33:25;4.16;46.25
64937;SHT30;51452;47.698;19.050;2023-02-08T15:36:02;4.06;46.24
64937;SHT30;51452;47.698;19.050;2023-02-08T15:38:29;4.06;46.59
64937;SHT30;51452;47.698;19.050;2023-02-08T15:41:25;3.97;46.80
64937;SHT30;51452;47.698;19.050;2023-02-08T15:44:00;3.84;47.65
64937;SHT30;51452;47.698;19.050;2023-02-08T15:46:26;3.78;47.86
64937;SHT30;51452;47.698;19.050;2023-02-08T15:48:53;3.67;47.90
64937;SHT30;51452;47.698;19.050;2023-02-08T15:51:21;3.63;48.22
64937;SHT30;51452;47.698;19.050;2023-02-08T15:53:51;3.58;48.50
64937;SHT30;51452;47.698;19.050;2023-02-08T15:56:25;3.48;48.24
64937;SHT30;51452;47.698;19.050;2023-02-08T15:58:54;3.34;48.58
64937;SHT30;51452;47.698;19.050;2023-02-08T16:01:21;3.15;48.64
64937;SHT30;51452;47.698;19.050;2023-02-08T16:03:57;3.02;49.23
64937;SHT30;51452;47.698;19.050;2023-02-08T16:06:26;2.92;50.00
64937;SHT30;51452;47.698;19.050;2023-02-08T16:08:55;2.82;50.01
64937;SHT30;51452;47.698;19.050;2023-02-08T16:11:29;2.71;50.23
64937;SHT30;51452;47.698;19.050;2023-02-08T16:13:57;2.65;50.57
64937;SHT30;51452;47.698;19.050;2023-02-08T16:21:49;2.34;51.29
64937;SHT30;51452;47.698;19.050;2023-02-08T16:26:43;2.17;51.46
64937;SHT30;51452;47.698;19.050;2023-02-08T16:31:45;2.06;51.52
64937;SHT30;51452;47.698;19.050;2023-02-08T16:34:16;2.04;51.94
64937;SHT30;51452;47.698;19.050;2023-02-08T16:36:45;1.97;51.86
64937;SHT30;51452;47.698;19.050;2023-02-08T16:42:00;1.89;52.14
64937;SHT30;51452;47.698;19.050;2023-02-08T16:44:32;1.89;52.12
64937;SHT30;51452;47.698;19.050;2023-02-08T16:46:58;1.80;52.25
64937;SHT30;51452;47.698;19.050;2023-02-08T16:49:25;1.77;52.59
64937;SHT30;51452;47.698;19.050;2023-02-08T16:52:00;1.76;52.33
64937;SHT30;51452;47.698;19.050;2023-02-08T16:54:25;1.73;52.31
64937;SHT30;51452;47.698;19.050;2023-02-08T16:56:52;1.70;52.66
64937;SHT30;51452;47.698;19.050;2023-02-08T16:59:25;1.67;52.60
64937;SHT30;51452;47.698;19.050;2023-02-08T17:01:51;1.69;52.61
64937;SHT30;51452;47.698;19.050;2023-02-08T17:04:16;1.65;52.82
64937;SHT30;51452;47.698;19.050;2023-02-08T17:06:45;1.58;53.03
64937;SHT30;51452;47.698;19.050;2023-02-08T17:09:12;1.60;52.94
64937;SHT30;51452;47.698;19.050;2023-02-08T17:11:38;1.62;53.12
64937;SHT30;51452;47.698;19.050;2023-02-08T17:14:05;1.58;53.20
64937;SHT30;51452;47.698;19.050;2023-02-08T17:16:32;1.52;53.08
64937;SHT30;51452;47.698;19.050;2023-02-08T17:18:59;1.48;53.30
64937;SHT30;51452;47.698;19.050;2023-02-08T17:21:25;1.51;53.07
64937;SHT30;51452;47.698;19.050;2023-02-08T17:23:52;1.45;53.29
64937;SHT30;51452;47.698;19.050;2023-02-08T17:26:26;1.42;53.73
64937;SHT30;51452;47.698;19.050;2023-02-08T17:28:56;1.36;53.81
64937;SHT30;51452;47.698;19.050;2023-02-08T17:31:26;1.36;53.79
64937;SHT30;51452;47.698;19.050;2023-02-08T17:33:53;1.28;53.63
64937;SHT30;51452;47.698;19.050;2023-02-08T17:36:20;1.35;53.84
64937;SHT30;51452;47.698;19.050;2023-02-08T17:38:46;1.35;53.76
64937;SHT30;51452;47.698;19.050;2023-02-08T17:43:38;1.14;53.84
64937;SHT30;51452;47.698;19.050;2023-02-08T17:46:19;1.21;53.89
64937;SHT30;51452;47.698;19.050;2023-02-08T17:48:45;1.14;54.05
64937;SHT30;51452;47.698;19.050;2023-02-08T17:51:14;1.15;53.92
64937;SHT30;51452;47.698;19.050;2023-02-08T17:53:41;1.14;54.01
64937;SHT30;51452;47.698;19.050;2023-02-08T17:56:17;1.14;54.28
64937;SHT30;51452;47.698;19.050;2023-02-08T17:58:44;1.07;54.45
64937;SHT30;51452;47.698;19.050;2023-02-08T18:01:16;1.05;54.52
64937;SHT30;51452;47.698;19.050;2023-02-08T18:03:47;1.07;54.29
64937;SHT30;51452;47.698;19.050;2023-02-08T18:06:14;1.07;54.58
64937;SHT30;51452;47.698;19.050;2023-02-08T18:08:40;0.98;54.82
64937;SHT30;51452;47.698;19.050;2023-02-08T18:11:08;1.01;54.83
64937;SHT30;51452;47.698;19.050;2023-02-08T18:13:35;1.04;54.95
64937;SHT30;51452;47.698;19.050;2023-02-08T18:16:09;0.95;55.02
64937;SHT30;51452;47.698;19.050;2023-02-08T18:18:35;0.94;54.98
64937;SHT30;51452;47.698;19.050;2023-02-08T18:21:00;0.95;55.08
64937;SHT30;51452;47.698;19.050;2023-02-08T18:23:27;0.91;55.17